Aeroporto :
LOGIN :

Iscrizione | Disclaimer

   EN    FR    IT 

 










Sommario :    VFR   VFR Marginale   IFR   IFR Intensivo   IFR Molto Intensivo
Visibilità : 
Base nubi : 
>= 8 km
>= 3000ft
5 / 8 km
1000 / 3000 ft
1500m / 5 km
500 / 1000 ft
800 / 1500m
200 / 500 ft
< 800m
< 200 ft
Simboli :   Temporali  Nebbia  Neve Forte  Precipitazioni Forti  Vento > 20 kt
SIGMETs :   Varie  Temporali  Ghiacco  Turbolenza  Onda orograficha  Ceneri Vulcaniche






- Altitudine del aeroporto : 466 ft


LHPA - Pápa

ULTIMO METAR :
  • 281845Z 33012KT 9999 FEW043TCU SCT057 BKN200 13/08 Q1022 NOSIG RMK BLU

METARs OBSOLETI :
  • 281815Z 33012KT 9999 FEW043TCU SCT057 BKN200 14/08 Q1022 NOSIG RMK BLU
  • 281745Z 34014KT 9999 FEW043TCU SCT053 BKN200 14/08 Q1022 NOSIG RMK BLU
  • 281715Z 33016KT 9999 FEW043TCU SCT060 BKN200 15/08 Q1022 NOSIG RMK BLU
  • 281645Z 34017KT 300V010 9999 FEW043TCU SCT060 BKN200 15/07 Q1022 NOSIG RMK BLU
  • 281615Z 33017G29KT 300V360 9999 FEW043TCU SCT060 BKN200 16/08 Q1022 NOSIG RMK BLU
  • 281545Z 32019G29KT 9999 FEW037CB SCT060 OVC200 16/09 Q1022 NOSIG RMK BLU

TAF TAF LHPA
Valido dal 28 a 18 ore il 29 a 18 ore UTC


281715Z 2818/2918 34012KT 9999 FEW045TCU SCT060 BKN200
TEMPO 2818/2820 33016G26KT
PROB30
TEMPO 2818/2820 7000 SHRA TSRA FEW030CB SCT035TCU BKN060
BECMG 2820/2823 33008KT CAVOK
BECMG 2906/2909 34011KT 9999 SCT025
TEMPO 2909/2914 35014G24KT
PROB30
TEMPO 2909/2918 8000 SHRA BKN030TCU SCT040 BKN080



MetMap, La meteo Aeronautica in un colpo d'occhio ! - Copyright ORBIFLY Dicembre 2007 - Disclaimer

ORBIFLY MET'MAP TEAM :

Programmazione e sviluppo : Alexandra Zaïnal
Concezione : Baudouin d'Aumeries
Aiuto per la programmazione : Marc-Olivier Méhu
Supporto tecnico e logistico : Manuel Goepfert
Aiuto per la traduzione : Arnaldo La Scala

Contatto : metmap@orbifly.com




FONTI E CREDITI :

   NOAA